Weather at Birmingham-Shuttlesworth International Airport

Public forecast

Using degrees Fahrenheit for public forecast. Weather courtesy of forecast.io.

Current aviation weather report (METAR) for Birmingham-Shuttlesworth International Airport

Retrieved 2021/02/27 16:53 UTC (52 minutes ago):

KBHM 271653Z 19012KT 10SM OVC023 22/16 A3016 RMK AO2 SLP206 T02220161

Aviation forecast (TAF) for Birmingham-Shuttlesworth International Airport

Retrieved 2021/02/27 12:39 UTC (5 hours ago):

TAF KBHM 271136Z 2712/2812 20007KT P6SM SCT015 OVC120 TEMPO 2712/2714 BKN015 OVC120 FM271400 20007KT P6SM OVC009 FM271600 19008KT P6SM OVC011 FM271800 20009KT P6SM OVC020 FM272000 19009KT P6SM OVC050 FM280500 18010KT P6SM OVC021